Latest Weather Observations for Christmas Island

IDW60801

Issued at 11:32 am WST Tuesday 23 December 2014 (issued every 30 minutes, with the page automatically refreshed every 10 minutes)

About weather observations | Map of weather stations | Latest weather observations for WA | Other Formats
Station Details ID: 200790 Name: CHRISTMAS ISLAND AERO Lat: -10.45 Lon: 105.69 Height: 261.0 m
Data from the previous 72 hours. | See also: Recent months at Christmas Island
Date/Time
WST
Temp
°C
App
Temp
°C
Dew
Point
Rel
Hum
%
Delta-T
°C
Wind Press
QNH
hPa
Press
MSL
hPa
Rain
since 9 am
mm
Dir
 
Spd
km/h
Gust
km/h
Spd
kts
Gust
kts
23/11:00am 27.7 30.1 23.7 79 2.8 N 17 26 9 14 1011.1 - 0.0
23/10:16am 26.7 29.6 23.8 84 2.0 N 15 22 8 12 1010.9 - 0.0
23/10:00am 27.0 30.0 24.0 83 2.1 N 15 22 8 12 1010.9 1009.3 3.8
23/09:00am 26.0 28.4 23.7 87 1.6 N 17 20 9 11 1010.4 - 3.8
23/08:13am 25.8 28.9 24.2 91 1.1 NNE 15 20 8 11 1010.2 - 3.8
23/08:00am 25.2 28.1 23.8 92 1.0 NNE 15 20 8 11 1010.2 - 3.8
23/07:51am 25.1 27.6 23.8 92 0.9 NNE 17 22 9 12 1010.1 - 3.8
23/07:40am 25.2 28.3 24.2 94 0.7 N 15 19 8 10 1010.1 - 3.8
23/07:33am 24.6 27.8 23.7 95 0.6 N 13 17 7 9 1010.0 - 3.8
23/07:00am 24.6 28.6 23.7 95 0.6 NW 9 11 5 6 1009.7 1008.1 3.6
23/06:52am 24.4 28.7 23.7 96 0.5 NW 7 11 4 6 1009.6 - 3.6
23/06:37am 24.2 28.4 23.5 96 0.5 NW 7 11 4 6 1009.4 - 3.6
23/06:34am 24.1 28.5 23.4 96 0.5 NW 6 9 3 5 1009.4 - 3.6
23/06:00am 23.9 28.5 23.2 96 0.5 NW 4 7 2 4 1009.1 - 3.6
23/05:00am 23.6 28.9 23.0 96 0.4 CALM 0 0 0 0 1009.0 - 3.6
23/04:00am 24.1 29.2 23.4 96 0.5 NW 2 6 1 3 1008.7 1007.0 3.6
23/03:20am 24.4 28.6 23.5 95 0.6 NW 7 9 4 5 1009.2 - 3.6
23/03:10am 24.5 28.7 23.5 94 0.7 NW 7 11 4 6 1009.3 - 3.6
23/03:05am 24.5 28.8 23.6 95 0.6 NW 7 11 4 6 1009.3 - 3.6
23/03:00am 24.4 28.6 23.5 95 0.6 NW 7 9 4 5 1009.3 - 3.6
23/02:15am 24.2 28.4 23.5 96 0.5 NW 7 9 4 5 1009.4 - 3.6
23/02:00am 24.1 28.5 23.4 96 0.5 NW 6 7 3 4 1009.6 - 3.4
23/01:00am 23.8 28.0 23.1 96 0.5 NW 6 7 3 4 1010.4 1008.8 3.4
23/12:00am 24.0 29.4 23.3 96 0.5 CALM 0 0 0 0 1010.7 - 3.2
 
Date/Time
WST
Temp
°C
App
Temp
°C
Dew
Point
Rel
Hum
%
Delta-T
°C
Wind Press
QNH
hPa
Press
MSL
hPa
Rain
since 9 am
mm
Dir
 
Spd
km/h
Gust
km/h
Spd
kts
Gust
kts
22/11:00pm 24.2 28.4 23.5 96 0.5 NW 7 9 4 5 1010.8 - 3.2
22/10:00pm 24.2 28.0 23.5 96 0.5 NW 9 13 5 7 1010.5 1008.9 3.2
22/09:00pm 24.2 27.9 23.2 94 0.7 NW 9 11 5 6 1010.0 - 3.2
22/08:00pm 24.2 28.0 22.7 91 1.0 NNW 7 11 4 6 1009.1 - 3.2
22/07:00pm 24.9 30.5 23.6 92 0.9 CALM 0 0 0 0 1008.2 1006.5 3.2
22/06:00pm 25.0 29.9 23.1 89 1.3 NNW 2 7 1 4 1007.5 - 3.2
22/05:00pm 25.0 29.2 23.1 89 1.3 NNW 6 9 3 5 1008.2 - 3.2
22/04:00pm 24.9 28.9 23.7 93 0.8 NW 9 13 5 7 1008.6 1006.9 3.2
22/03:00pm 25.1 29.1 23.1 89 1.4 N 7 9 4 5 1008.9 - 2.6
22/02:44pm 25.1 28.9 23.5 91 1.1 N 9 11 5 6 1009.2 - 1.8
22/02:39pm 25.4 29.9 24.0 92 1.0 N 7 11 4 6 1009.2 - 1.6
22/02:31pm 25.3 29.1 24.1 93 0.8 N 11 15 6 8 1009.2 - 1.4
22/02:03pm 25.7 29.3 23.7 89 1.4 ENE 11 17 6 9 1009.6 - 0.2
22/02:00pm 25.6 28.8 23.1 86 1.7 E 11 17 6 9 1009.7 - 0.2
22/01:00pm 25.4 28.8 23.4 89 1.4 ESE 11 13 6 7 1010.1 1008.5 0.2
22/12:58pm 24.8 28.0 23.0 90 1.2 ESE 11 13 6 7 1010.2 - 0.2
22/12:00pm 27.1 30.5 24.1 84 2.1 E 13 19 7 10 1010.5 - 0.2
22/11:42am 27.9 32.0 24.6 82 2.3 E 11 17 6 9 1010.7 - 0.2
22/11:22am 27.2 30.8 24.3 84 2.0 ESE 13 17 7 9 1010.8 - 0.2
22/11:00am 26.7 30.8 24.6 88 1.5 E 11 13 6 7 1011.0 - 0.2
22/10:20am 26.8 30.4 23.8 83 2.1 SE 11 15 6 8 1011.0 - 0.2
22/10:00am 26.6 30.6 23.7 84 2.0 SE 9 13 5 7 1011.0 1009.4 23.0
22/09:00am 26.4 30.4 23.7 85 1.9 SE 9 13 5 7 1010.4 - 23.0
22/08:18am 25.1 29.4 24.2 95 0.6 SE 9 11 5 6 1009.9 - 23.0
22/08:00am 24.9 29.5 24.2 96 0.5 SE 7 9 4 5 1009.9 - 23.0
22/07:50am 24.6 29.1 24.0 96 0.4 SE 7 9 4 5 1009.8 - 23.0
22/07:00am 24.5 29.6 24.1 98 0.3 SE 4 7 2 4 1009.5 1007.9 23.0
22/06:33am 24.3 29.0 23.9 98 0.3 SE 6 7 3 4 1009.1 - 23.0
22/06:09am 24.3 30.1 23.9 98 0.3 CALM 0 0 0 0 1008.9 - 23.0
22/06:00am 24.1 29.8 23.7 98 0.3 CALM 0 0 0 0 1008.9 - 23.0
22/05:50am 24.1 29.8 23.7 98 0.3 CALM 0 0 0 0 1008.8 - 23.0
22/05:39am 24.2 29.9 23.8 98 0.3 CALM 0 0 0 0 1008.7 - 23.0
22/05:00am 24.2 29.9 23.8 98 0.3 CALM 0 0 0 0 1008.7 - 23.0
22/04:47am 24.2 29.9 23.8 98 0.3 CALM 0 0 0 0 1008.7 - 23.0
22/04:23am 24.0 29.6 23.6 98 0.3 CALM 0 0 0 0 1008.6 - 23.0
22/04:00am 24.1 29.8 23.7 98 0.3 CALM 0 0 0 0 1008.7 1007.0 23.0
22/03:30am 24.1 28.6 23.7 98 0.3 SE 6 7 3 4 1008.8 - 23.0
22/03:00am 23.9 28.6 23.3 96 0.4 SE 4 6 2 3 1009.0 - 23.0
22/02:50am 23.8 28.5 23.4 98 0.3 SE 4 7 2 4 1009.0 - 22.8
22/02:39am 23.7 28.0 23.3 98 0.3 SE 6 7 3 4 1009.0 - 22.8
22/02:04am 23.7 28.4 23.3 98 0.3 SE 4 11 2 6 1009.6 - 19.6
22/02:00am 23.8 27.9 23.2 96 0.4 SE 7 15 4 8 1009.7 - 18.2
22/01:30am 24.0 27.9 23.6 98 0.3 SE 9 15 5 8 1010.0 - 14.8
22/01:28am 24.0 27.9 23.6 98 0.3 SE 9 17 5 9 1010.0 - 14.8
22/01:27am 24.0 27.9 23.6 98 0.3 SE 9 17 5 9 1010.0 - 14.8
22/01:25am 24.0 27.9 23.6 98 0.3 SE 9 17 5 9 1010.0 - 14.8
22/01:21am 24.1 28.4 23.7 98 0.3 SE 7 17 4 9 1010.0 - 14.8
22/01:19am 24.1 28.6 23.7 98 0.3 SE 6 17 3 9 1010.0 - 14.8
22/01:00am 24.1 29.8 23.7 98 0.3 CALM 0 6 0 3 1010.1 1008.5 14.8
22/12:23am 24.5 29.6 24.1 98 0.3 SE 4 7 2 4 1010.5 - 14.8
22/12:00am 24.5 30.4 24.1 98 0.3 CALM 0 7 0 4 1010.8 - 14.8
 
Date/Time
WST
Temp
°C
App
Temp
°C
Dew
Point
Rel
Hum
%
Delta-T
°C
Wind Press
QNH
hPa
Press
MSL
hPa
Rain
since 9 am
mm
Dir
 
Spd
km/h
Gust
km/h
Spd
kts
Gust
kts
21/11:00pm 24.5 29.2 23.9 96 0.4 SE 6 9 3 5 1011.1 - 14.8
21/10:51pm 24.4 29.5 24.0 98 0.3 SE 4 7 2 4 1011.1 - 14.8
21/10:14pm 24.3 28.8 23.9 98 0.3 SE 7 13 4 7 1010.7 - 14.8
21/10:09pm 24.3 28.8 23.7 96 0.4 SE 6 9 3 5 1010.6 - 14.8
21/10:00pm 24.0 29.5 23.4 96 0.4 CALM 0 6 0 3 1010.5 1008.9 14.8
21/09:57pm 23.9 29.5 23.5 98 0.3 CALM 0 6 0 3 1010.5 - 14.8
21/09:36pm 23.9 28.2 23.3 96 0.4 SE 6 7 3 4 1010.3 - 14.4
21/09:21pm 23.8 28.0 23.2 96 0.4 SE 6 9 3 5 1010.2 - 13.6
21/09:02pm 23.8 28.0 23.1 96 0.5 SE 6 9 3 5 1010.1 - 13.4
21/09:00pm 23.7 27.9 23.1 96 0.4 SE 6 9 3 5 1010.0 - 13.4
21/08:16pm 23.6 27.5 23.0 96 0.4 SE 7 13 4 7 1009.8 - 13.4
21/08:00pm 24.1 28.3 23.5 96 0.4 SE 7 13 4 7 1009.9 - 13.4
21/07:58pm 24.1 28.3 23.5 96 0.4 ESE 7 13 4 7 1009.8 - 13.4
21/07:52pm 24.1 28.5 23.5 96 0.4 E 6 11 3 6 1009.8 - 13.4
21/07:25pm 24.1 29.7 23.5 96 0.4 CALM 0 0 0 0 1009.4 - 13.0
21/07:00pm 24.3 28.8 23.7 96 0.4 E 6 9 3 5 1009.0 1007.3 11.4
21/06:47pm 24.3 27.5 23.7 96 0.4 ENE 13 22 7 12 1008.8 - 10.0
21/06:14pm 25.0 29.6 24.1 95 0.6 S 7 13 4 7 1008.4 - 9.2
21/06:00pm 24.7 29.0 23.7 94 0.7 SE 7 13 4 7 1008.3 - 9.2
21/05:29pm 24.6 26.7 23.1 91 1.0 ENE 17 20 9 11 1008.1 - 2.6
21/05:00pm 25.6 29.7 24.0 91 1.1 SE 9 15 5 8 1007.9 - 0.0
21/04:41pm 25.6 29.4 24.0 91 1.1 SSE 11 19 6 10 1008.2 - 0.0
21/04:31pm 26.1 30.2 23.9 88 1.5 SE 9 19 5 10 1008.3 - 0.0
21/04:00pm 26.1 29.4 23.9 88 1.5 SE 13 19 7 10 1008.5 1006.8 0.0
21/03:00pm 26.4 29.1 23.5 84 2.0 SE 15 19 8 10 1009.0 - 0.0
21/02:00pm 27.0 29.5 23.1 79 2.7 SE 15 22 8 12 1009.7 - 0.0
21/01:20pm 27.4 30.3 23.2 78 2.9 SE 13 20 7 11 1010.2 - 0.0
21/01:03pm 27.9 30.5 22.6 73 3.6 SE 13 19 7 10 1010.4 - 0.0
21/01:00pm 27.8 30.5 23.5 77 3.0 SE 15 20 8 11 1010.4 1008.8 0.0
21/12:09pm 26.9 30.1 23.0 79 2.7 SSE 11 17 6 9 1010.7 - 0.0
21/12:06pm 27.4 30.8 23.3 78 2.8 SSE 11 17 6 9 1010.7 - 0.0
21/12:00pm 27.0 29.8 22.3 75 3.2 SE 11 17 6 9 1010.8 - 0.0
21/11:00am 26.8 29.6 23.0 79 2.6 SSE 13 20 7 11 1011.2 - 0.0
21/10:37am 27.4 30.5 23.5 79 2.7 SSE 13 22 7 12 1011.1 - 0.0
21/10:30am 27.2 29.6 23.0 78 2.9 SE 15 22 8 12 1011.1 - 0.0
21/10:00am 26.3 29.0 22.9 81 2.3 S 13 19 7 10 1011.0 1009.4 1.6
21/09:00am 25.9 29.2 23.9 89 1.4 SSE 13 22 7 12 1010.5 - 1.6
21/08:00am 25.0 28.0 23.3 90 1.2 SE 13 20 7 11 1010.3 - 1.6
21/07:00am 24.6 28.0 23.3 92 0.9 SE 11 17 6 9 1009.6 1008.0 1.6
21/06:00am 24.4 27.5 22.9 91 1.0 SSE 11 20 6 11 1008.8 - 1.6
21/05:00am 24.7 27.2 23.2 91 1.0 SE 15 20 8 11 1008.9 - 1.6
21/04:00am 24.7 26.7 22.9 90 1.2 SE 17 22 9 12 1009.3 1007.6 1.6
21/03:00am 24.7 27.1 22.9 90 1.2 SE 15 20 8 11 1010.0 - 1.6
21/02:00am 24.8 26.8 22.9 89 1.3 SE 17 22 9 12 1010.7 - 1.6
21/01:20am 24.8 27.0 22.6 87 1.5 SE 15 20 8 11 1011.2 - 1.6
21/01:00am 24.7 26.5 22.6 88 1.4 SE 17 24 9 13 1011.4 1009.8 1.6
21/12:00am 24.9 26.5 23.3 91 1.1 SE 20 28 11 15 1012.1 - 1.6
 
Date/Time
WST
Temp
°C
App
Temp
°C
Dew
Point
Rel
Hum
%
Delta-T
°C
Wind Press
QNH
hPa
Press
MSL
hPa
Rain
since 9 am
mm
Dir
 
Spd
km/h
Gust
km/h
Spd
kts
Gust
kts
20/11:13pm 24.2 27.2 22.7 91 1.0 SSE 11 19 6 10 1012.4 - 1.6
20/11:00pm 24.1 27.6 22.9 93 0.8 SSE 9 15 5 8 1012.3 - 1.6
20/10:00pm 25.0 26.4 22.6 86 1.6 SE 19 30 10 16 1011.9 1010.3 1.6
20/09:00pm 25.0 26.1 22.3 85 1.8 SE 20 30 11 16 1011.4 - 1.6
20/08:50pm 24.9 25.9 22.2 85 1.8 SE 20 26 11 14 1011.3 - 1.6
20/08:40pm 25.0 26.0 22.8 87 1.5 SE 22 32 12 17 1011.2 - 1.6
20/08:29pm 25.0 25.9 22.6 86 1.6 SE 22 32 12 17 1011.2 - 1.6
20/08:17pm 24.9 26.2 22.7 87 1.5 SE 20 28 11 15 1011.0 - 1.6
20/08:00pm 24.7 25.9 22.5 87 1.5 SE 20 30 11 16 1010.9 - 1.6
20/07:49pm 24.3 25.5 22.5 90 1.2 SE 20 26 11 14 1010.7 - 1.6
20/07:00pm 24.5 26.5 23.6 95 0.6 SE 19 28 10 15 1010.1 1008.5 1.6
20/06:00pm 24.7 27.0 23.5 93 0.8 SE 17 24 9 13 1009.4 - 1.6
20/05:00pm 25.0 27.4 23.7 92 0.9 SE 17 24 9 13 1009.3 - 1.6
20/04:00pm 25.2 27.9 23.5 90 1.2 SE 15 20 8 11 1010.1 1008.5 1.6
20/03:07pm 25.0 27.7 23.4 91 1.1 SE 15 20 8 11 1010.6 - 1.6
20/03:00pm 24.8 27.4 23.3 91 1.0 SE 15 24 8 13 1010.7 - 1.6
20/02:17pm 25.1 27.9 23.6 91 1.0 SE 15 20 8 11 1010.9 - 1.6
20/02:00pm 24.6 27.8 23.7 95 0.6 SE 13 20 7 11 1011.3 - 1.6
20/01:10pm 24.3 27.9 23.7 96 0.4 SSE 11 17 6 9 1011.9 - 1.6
20/01:00pm 24.2 27.3 23.5 96 0.5 SSE 13 22 7 12 1011.9 1010.3 1.6
20/12:54pm 24.3 27.5 23.7 96 0.4 SSE 13 20 7 11 1011.9 - 1.6

Other Formats:

Comma delimited format used in spreadsheet applications
http://www.bom.gov.au/fwo/IDW60801/IDW60801.96995.axf

JavaScript Object Notation format (JSON) in row-major order
http://www.bom.gov.au/fwo/IDW60801/IDW60801.96995.json